METAR Data
IDs: Format: Raw Decoded Include TAF

Data at: 1759 UTC 26 Sep 2021

METAR for:KGKT (Gatlinburg-Pigeon Fo, TN, US)
Text:KGKT 261755Z AUTO 00000KT 10SM CLR 23/11 A3016 RMK A01
Temperature: 23.0°C ( 73°F)
Dewpoint: 11.0°C ( 52°F) [RH = 47%]
Pressure (altimeter):30.16 inches Hg (1021.4 mb)
Winds:calm
Visibility:10 or more sm (16+ km)
Ceiling:at least 12,000 feet AGL
Clouds:sky clear below 12,000 feet AGL
QC Flag:automated observation with no human augmentation

TAF for:KGKT (Gatlinburg-Pigeon Fo, TN, US)
Text:No data found